Time;durP1;ratioP1;P1;durP2;ratioP2;P2;SDS_P1;SDS_P2;PMS_P1;PMS_P2;Temp;Humidity;BMP_temperature;BMP_pressure;BME280_temperature;BME280_humidity;BME280_pressure;Samples;Min_cycle;Max_cycle;Signal;HPM_P1;HPM_P2
2023/04/15 00:00:24;;;;;;;12.25;7.68;;;;;;;5.69;69.62;99510.72;5031922;28;20521;-57
2023/04/15 00:02:52;;;;;;;12.65;8.50;;;;;;;5.62;70.13;99510.28;5031993;28;20061;-57
2023/04/15 00:05:24;;;;;;;10.70;8.15;;;;;;;5.63;70.20;99503.66;5045992;28;20049;-58
2023/04/15 00:07:52;;;;;;;11.68;8.55;;;;;;;5.56;69.86;99511.50;5050969;28;20049;-57
2023/04/15 00:10:22;;;;;;;11.85;8.73;;;;;;;5.52;70.39;99507.72;5031370;28;20053;-57
2023/04/15 00:12:52;;;;;;;10.95;8.10;;;;;;;5.51;69.68;99508.88;5032062;28;20054;-58
2023/04/15 00:15:21;;;;;;;13.13;8.70;;;;;;;5.52;69.90;99504.16;5048091;28;20490;-57
2023/04/15 00:17:51;;;;;;;10.15;7.85;;;;;;;5.55;70.11;99498.84;5052306;28;20049;-57
2023/04/15 00:20:19;;;;;;;11.32;6.93;;;;;;;5.55;69.52;99504.38;5049043;28;20053;-57
2023/04/15 00:22:49;;;;;;;10.98;7.70;;;;;;;5.47;69.74;99507.84;5050089;28;20053;-58
2023/04/15 00:25:22;;;;;;;13.25;8.85;;;;;;;5.41;69.81;99506.28;5033286;28;20060;-58
2023/04/15 00:27:52;;;;;;;12.82;8.48;;;;;;;5.40;70.26;99501.91;5032338;28;20058;-57
2023/04/15 00:30:22;;;;;;;10.73;8.55;;;;;;;5.36;70.38;99492.59;5045349;28;20049;-57
2023/04/15 00:32:52;;;;;;;13.07;9.20;;;;;;;5.34;70.65;99508.63;5046423;28;20064;-58
2023/04/15 00:35:25;;;;;;;11.70;7.57;;;;;;;5.34;70.53;99503.91;5041067;28;20057;-58
2023/04/15 00:38:11;;;;;;;11.80;8.15;;;;;;;5.34;70.10;99506.69;5048623;28;20487;-57
2023/04/15 00:40:40;;;;;;;10.63;7.80;;;;;;;5.28;70.50;99503.19;5033865;28;20064;-57
2023/04/15 00:43:07;;;;;;;11.77;7.83;;;;;;;5.28;69.82;99505.13;5048162;28;20048;-57
2023/04/15 00:45:38;;;;;;;10.18;7.50;;;;;;;5.29;69.90;99502.06;5031346;28;20053;-58
2023/04/15 00:48:10;;;;;;;9.57;7.47;;;;;;;5.33;70.03;99495.94;5032387;28;20482;-58
2023/04/15 00:50:52;;;;;;;10.25;7.57;;;;;;;5.33;69.97;99512.50;5036586;28;20407;-57
2023/04/15 00:53:37;;;;;;;11.63;8.60;;;;;;;5.34;70.10;99497.59;5047306;28;20465;-57
2023/04/15 00:56:08;;;;;;;12.45;8.35;;;;;;;5.28;70.50;99503.19;5038233;28;20501;-58
2023/04/15 00:58:39;;;;;;;11.43;9.13;;;;;;;5.31;71.13;99509.22;5051202;28;20060;-57
2023/04/15 01:01:07;;;;;;;17.83;9.52;;;;;;;5.29;71.12;99506.75;5049995;28;20053;-57
2023/04/15 01:03:39;;;;;;;11.65;8.57;;;;;;;5.28;70.73;99517.00;5049000;28;20057;-57
2023/04/15 01:06:14;;;;;;;14.45;8.52;;;;;;;5.19;70.82;99504.19;5034951;28;20050;-57
2023/04/15 01:08:44;;;;;;;11.45;7.82;;;;;;;5.21;70.51;99500.00;5035405;28;20044;-57
2023/04/15 01:11:13;;;;;;;10.32;7.95;;;;;;;5.19;70.20;99507.78;5051641;28;20053;-57
2023/04/15 01:13:41;;;;;;;11.30;7.40;;;;;;;5.12;70.62;99504.56;5047316;28;20120;-58
2023/04/15 01:16:09;;;;;;;11.85;8.52;;;;;;;5.05;70.53;99502.19;5036021;28;20053;-58
2023/04/15 01:18:41;;;;;;;9.18;7.35;;;;;;;5.08;70.56;99501.59;5052818;28;20422;-58
2023/04/15 01:21:10;;;;;;;10.02;7.45;;;;;;;5.05;70.09;99501.38;5035705;28;20141;-58
2023/04/15 01:23:40;;;;;;;10.20;7.10;;;;;;;5.02;70.02;99513.03;5033929;28;20052;-58
2023/04/15 01:26:09;;;;;;;10.20;7.30;;;;;;;4.98;70.68;99509.25;5035703;28;20045;-58
2023/04/15 01:28:37;;;;;;;9.65;7.57;;;;;;;4.92;70.76;99510.44;5049801;28;20059;-62
2023/04/15 01:31:09;;;;;;;10.75;8.63;;;;;;;4.91;70.60;99512.34;5053974;28;20063;-62
2023/04/15 01:33:37;;;;;;;10.25;8.70;;;;;;;4.87;70.54;99506.66;5053491;28;20053;-62
2023/04/15 01:36:06;;;;;;;13.45;9.38;;;;;;;4.86;70.78;99507.75;5046275;28;20044;-62
2023/04/15 01:38:36;;;;;;;10.73;8.13;;;;;;;4.91;71.33;99509.59;5050331;28;20494;-62
2023/04/15 01:41:10;;;;;;;11.20;7.05;;;;;;;4.95;70.86;99496.84;5047147;28;20060;-62
2023/04/15 01:43:40;;;;;;;9.80;6.70;;;;;;;4.93;69.80;99499.09;5047504;28;20059;-62
2023/04/15 01:46:13;;;;;;;9.50;7.00;;;;;;;4.94;70.11;99497.16;5052575;28;20054;-62
2023/04/15 01:48:52;;;;;;;9.75;7.47;;;;;;;4.87;70.58;99500.28;5054713;28;20060;-62
2023/04/15 01:51:19;;;;;;;11.60;7.35;;;;;;;4.80;70.22;99497.09;5054356;28;20064;-62
2023/04/15 01:54:20;;;;;;;11.25;8.35;;;;;;;4.81;70.67;99490.47;5040768;28;20053;-62
2023/04/15 01:56:56;;;;;;;10.95;7.70;;;;;;;4.75;70.69;99494.44;5019968;28;20403;-62
2023/04/15 01:59:32;;;;;;;9.48;7.68;;;;;;;4.75;71.04;99497.19;5034656;28;20410;-62
2023/04/15 02:02:03;;;;;;;12.25;7.85;;;;;;;4.80;70.50;99499.84;5035215;28;20414;-62
2023/04/15 02:04:43;;;;;;;11.00;7.20;;;;;;;4.78;70.37;99502.09;5034518;28;20057;-62
2023/04/15 02:07:23;;;;;;;10.82;7.05;;;;;;;4.78;70.84;99507.63;5034564;28;20056;-64
2023/04/15 02:09:56;;;;;;;7.93;6.80;;;;;;;4.73;70.14;99500.25;5051657;28;20057;-62
2023/04/15 02:15:29;;;;;;;8.57;6.47;;;;;;;4.68;70.86;99509.41;5022713;28;20433;-63
2023/04/15 02:17:58;;;;;;;9.25;6.88;;;;;;;4.68;70.89;99514.94;5054334;28;20056;-62
2023/04/15 02:20:25;;;;;;;11.10;7.00;;;;;;;4.66;70.27;99514.41;5054119;28;20088;-62
2023/04/15 02:22:56;;;;;;;10.48;7.05;;;;;;;4.66;70.78;99513.56;5050549;28;20056;-62
2023/04/15 02:25:26;;;;;;;8.88;6.88;;;;;;;4.72;70.99;99515.13;5052937;28;20053;-62
2023/04/15 02:27:57;;;;;;;10.45;6.43;;;;;;;4.73;70.92;99518.75;5054228;28;20041;-62
2023/04/15 02:30:26;;;;;;;10.63;7.22;;;;;;;4.71;69.99;99510.75;5054372;28;20076;-62
2023/04/15 02:32:58;;;;;;;10.38;7.47;;;;;;;4.68;70.74;99523.22;5053988;28;20045;-62
2023/04/15 02:35:26;;;;;;;9.63;6.88;;;;;;;4.68;70.05;99522.38;5054196;28;20377;-62
2023/04/15 02:37:54;;;;;;;12.85;8.13;;;;;;;4.58;70.77;99530.81;5048477;28;20049;-62
2023/04/15 02:40:21;;;;;;;10.55;6.70;;;;;;;4.54;71.00;99530.59;5039780;28;20367;-62
2023/04/15 02:42:49;;;;;;;9.25;7.03;;;;;;;4.51;70.15;99530.34;5047960;28;20056;-62
2023/04/15 02:45:22;;;;;;;8.43;6.72;;;;;;;4.57;70.74;99527.22;5053719;28;20053;-63
2023/04/15 02:47:51;;;;;;;9.73;7.55;;;;;;;4.52;69.97;99532.00;5053593;28;20425;-62
2023/04/15 02:50:19;;;;;;;9.55;7.30;;;;;;;4.50;70.56;99531.47;5053774;28;20052;-62
2023/04/15 02:52:48;;;;;;;10.15;7.32;;;;;;;4.47;69.93;99538.38;5051440;28;20057;-62
2023/04/15 02:55:21;;;;;;;6.88;6.13;;;;;;;4.49;70.69;99544.44;5052277;28;20067;-64
2023/04/15 02:58:09;;;;;;;11.15;7.53;;;;;;;4.49;70.73;99541.66;5053405;28;20056;-62
2023/04/15 03:00:37;;;;;;;11.38;7.65;;;;;;;4.45;69.90;99544.22;5053459;28;20049;-59
2023/04/15 03:03:09;;;;;;;12.40;8.38;;;;;;;4.43;70.88;99546.47;5053191;28;20053;-58
2023/04/15 03:05:38;;;;;;;8.95;7.25;;;;;;;4.34;70.81;99555.66;5053240;28;20060;-58
2023/04/15 03:08:06;;;;;;;10.05;7.03;;;;;;;4.37;70.56;99560.59;5049436;28;20417;-58
2023/04/15 03:10:34;;;;;;;8.85;6.80;;;;;;;4.40;69.72;99552.53;5053036;28;20060;-58
2023/04/15 03:13:04;;;;;;;8.32;6.45;;;;;;;4.34;70.82;99559.25;5052021;28;20064;-59
2023/04/15 03:15:41;;;;;;;12.30;7.95;;;;;;;4.35;70.07;99555.38;5053006;28;20069;-58
2023/04/15 03:18:15;;;;;;;10.82;7.45;;;;;;;4.39;71.24;99559.19;5053104;28;20049;-58
2023/04/15 03:20:43;;;;;;;11.98;8.52;;;;;;;4.38;70.78;99554.78;5052846;28;20056;-59
2023/04/15 03:23:12;;;;;;;11.50;8.13;;;;;;;4.37;70.57;99558.66;5049243;28;20059;-58
2023/04/15 03:25:40;;;;;;;9.70;7.40;;;;;;;4.36;70.25;99553.44;5032871;28;20514;-58
2023/04/15 03:28:08;;;;;;;10.25;7.55;;;;;;;4.35;70.08;99560.91;5033006;28;20061;-58
2023/04/15 03:30:35;;;;;;;11.50;8.20;;;;;;;4.31;71.16;99559.03;5032892;28;20050;-58
2023/04/15 03:33:03;;;;;;;11.90;8.23;;;;;;;4.33;71.15;99568.63;5032724;28;20061;-58
2023/04/15 03:35:31;;;;;;;15.20;10.05;;;;;;;4.28;70.11;99560.41;5039784;28;20072;-58
2023/04/15 03:37:58;;;;;;;9.85;7.40;;;;;;;4.30;69.80;99574.72;5048548;28;20405;-57
2023/04/15 03:40:26;;;;;;;10.20;7.32;;;;;;;4.28;71.17;99571.44;5052315;28;20052;-58
2023/04/15 03:42:53;;;;;;;12.55;7.82;;;;;;;4.29;70.46;99566.78;5052713;28;20053;-58
2023/04/15 03:45:20;;;;;;;10.68;7.65;;;;;;;4.29;70.26;99573.09;5052685;28;20049;-57
2023/04/15 03:47:48;;;;;;;9.60;7.13;;;;;;;4.32;69.57;99572.50;5052306;28;20402;-57
2023/04/15 03:50:15;;;;;;;9.32;7.22;;;;;;;4.26;69.45;99579.19;5052342;28;20135;-57
2023/04/15 03:52:44;;;;;;;10.00;7.13;;;;;;;4.19;69.68;99575.97;5048712;28;20048;-58
2023/04/15 03:55:11;;;;;;;9.07;7.30;;;;;;;4.20;69.49;99572.09;5051249;28;20056;-57
2023/04/15 03:57:38;;;;;;;11.50;7.65;;;;;;;4.22;70.19;99576.22;5052485;28;20057;-57
2023/04/15 04:00:08;;;;;;;9.93;6.70;;;;;;;4.22;70.10;99583.66;5052474;28;20401;-58
2023/04/15 04:02:35;;;;;;;;;;;;;;;4.16;69.73;99579.31;5053001;28;20049;-57
2023/04/15 04:05:03;;;;;;;8.85;6.57;;;;;;;4.09;69.43;99579.66;5052097;28;19927;-58
2023/04/15 04:07:31;;;;;;;10.48;8.25;;;;;;;4.04;70.54;99575.03;5050390;28;20383;-58
2023/04/15 04:10:00;;;;;;;12.40;9.10;;;;;;;4.07;69.77;99579.97;5049588;28;20383;-57
2023/04/15 04:12:27;;;;;;;11.73;8.10;;;;;;;4.01;69.65;99578.41;5051957;28;20056;-58
2023/04/15 04:14:54;;;;;;;11.05;7.85;;;;;;;4.05;71.06;99578.59;5051931;28;20052;-57
2023/04/15 04:17:21;;;;;;;11.43;8.50;;;;;;;4.04;70.90;99566.78;5051935;28;20053;-57
2023/04/15 04:19:48;;;;;;;13.25;8.88;;;;;;;4.07;70.89;99571.72;5052072;28;20049;-58
2023/04/15 04:22:16;;;;;;;10.15;8.45;;;;;;;4.10;70.73;99577.75;5050020;28;20485;-58
2023/04/15 04:24:43;;;;;;;12.23;8.73;;;;;;;4.14;70.65;99576.06;5048640;28;20049;-58
2023/04/15 04:27:12;;;;;;;12.00;8.85;;;;;;;4.15;69.77;99584.00;5051790;28;20049;-58
2023/04/15 04:29:39;;;;;;;11.60;8.50;;;;;;;4.14;70.67;99576.88;5051537;28;20052;-58
2023/04/15 04:32:07;;;;;;;10.27;7.38;;;;;;;4.17;71.04;99586.47;5052104;28;20064;-58
2023/04/15 04:34:34;;;;;;;11.35;8.00;;;;;;;4.19;69.85;99579.53;5052036;28;20057;-58
2023/04/15 04:37:01;;;;;;;9.88;7.47;;;;;;;4.23;70.44;99594.38;5051995;28;20053;-58
2023/04/15 04:39:28;;;;;;;9.48;7.40;;;;;;;4.18;70.08;99591.69;5047841;28;20436;-57
2023/04/15 04:41:56;;;;;;;9.75;8.10;;;;;;;4.19;69.66;99598.84;5051623;28;20056;-58
2023/04/15 04:44:25;;;;;;;11.30;8.10;;;;;;;4.16;70.36;99606.88;5052078;28;20056;-58
2023/04/15 04:46:52;;;;;;;11.98;9.27;;;;;;;4.19;70.09;99600.78;5051639;28;20057;-58
2023/04/15 04:49:19;;;;;;;14.80;8.43;;;;;;;4.18;69.94;99605.47;5051885;28;20478;-58
2023/04/15 04:51:47;;;;;;;10.60;8.13;;;;;;;4.21;69.15;99601.31;5048919;28;20437;-58
2023/04/15 04:54:15;;;;;;;10.15;7.10;;;;;;;4.21;69.06;99607.63;5036161;28;20057;-57
2023/04/15 04:56:42;;;;;;;9.05;7.45;;;;;;;4.20;69.46;99619.78;5035626;28;20054;-58
2023/04/15 04:59:09;;;;;;;11.52;7.50;;;;;;;4.25;69.43;99611.44;5035510;28;20068;-58
2023/04/15 05:01:38;;;;;;;13.38;8.77;;;;;;;4.30;69.03;99618.03;5035405;28;20065;-58
2023/04/15 05:04:06;;;;;;;11.35;7.95;;;;;;;4.38;69.98;99622.88;5035247;28;20414;-58
2023/04/15 05:06:35;;;;;;;8.98;6.95;;;;;;;4.36;68.49;99623.16;5034589;28;20054;-58
2023/04/15 05:09:03;;;;;;;11.93;7.37;;;;;;;4.35;68.19;99624.31;5034187;28;20053;-58
2023/04/15 05:11:30;;;;;;;10.10;7.95;;;;;;;4.40;68.23;99624.22;5035361;28;20479;-58
2023/04/15 05:13:58;;;;;;;9.82;7.72;;;;;;;4.46;69.00;99625.00;5035070;28;20060;-57
2023/04/15 05:16:25;;;;;;;8.80;6.88;;;;;;;4.52;69.23;99636.78;5035132;28;20065;-57
2023/04/15 05:18:54;;;;;;;9.40;7.00;;;;;;;4.63;68.54;99641.88;5035152;28;20063;-58
2023/04/15 05:21:21;;;;;;;10.65;7.95;;;;;;;4.66;68.54;99649.56;5035127;28;20503;-57
2023/04/15 05:23:49;;;;;;;9.25;7.45;;;;;;;4.71;68.38;99645.91;5040826;28;20045;-57
2023/04/15 05:26:16;;;;;;;9.85;7.10;;;;;;;4.77;68.58;99647.50;5054806;28;20049;-58
2023/04/15 05:28:43;;;;;;;9.88;7.40;;;;;;;4.88;68.57;99651.75;5054391;28;20056;-58
2023/04/15 05:31:11;;;;;;;11.63;8.98;;;;;;;4.82;68.58;99647.41;5054846;28;20057;-58
2023/04/15 05:33:39;;;;;;;10.13;7.55;;;;;;;4.96;68.22;99657.75;5054700;28;20049;-58
2023/04/15 05:36:08;;;;;;;10.63;8.43;;;;;;;5.02;67.88;99651.03;5054645;28;20489;-58
2023/04/15 05:38:36;;;;;;;11.70;8.63;;;;;;;5.07;68.80;99656.47;5051922;28;20421;-58
2023/04/15 05:41:03;;;;;;;13.50;8.88;;;;;;;5.18;68.35;99660.72;5054687;28;20409;-58
2023/04/15 05:43:31;;;;;;;12.85;8.60;;;;;;;5.32;68.03;99658.03;5054533;28;20072;-58
2023/04/15 05:45:58;;;;;;;11.05;9.15;;;;;;;5.49;68.30;99657.50;5054237;28;20401;-58
2023/04/15 05:48:25;;;;;;;11.68;8.68;;;;;;;5.62;67.96;99665.00;5054400;28;20099;-58
2023/04/15 05:50:53;;;;;;;13.57;9.68;;;;;;;5.75;67.66;99668.94;5054278;28;20067;-58
2023/04/15 05:53:22;;;;;;;14.52;8.98;;;;;;;5.82;67.49;99668.56;5050788;28;20053;-57
2023/04/15 05:55:49;;;;;;;11.82;9.38;;;;;;;5.95;67.32;99672.53;5054289;28;20056;-58
2023/04/15 05:58:16;;;;;;;12.85;9.27;;;;;;;6.07;67.33;99670.09;5054330;28;20056;-58
2023/04/15 06:00:45;;;;;;;11.95;9.07;;;;;;;6.22;66.96;99677.28;5054259;28;20053;-58
2023/04/15 06:03:12;;;;;;;11.73;8.43;;;;;;;6.36;66.77;99669.81;5053957;28;20486;-57
2023/04/15 06:05:39;;;;;;;13.20;9.40;;;;;;;6.48;66.73;99677.59;5054030;28;20485;-58
2023/04/15 06:08:07;;;;;;;12.00;9.45;;;;;;;6.57;66.71;99677.72;5048497;28;20049;-58
2023/04/15 06:10:36;;;;;;;11.48;8.70;;;;;;;6.71;65.96;99684.06;5053881;28;20061;-58
2023/04/15 06:13:04;;;;;;;13.85;10.45;;;;;;;6.81;66.08;99686.63;5053900;28;20052;-58
2023/04/15 06:15:31;;;;;;;12.13;9.95;;;;;;;6.97;66.01;99691.84;5053965;28;20482;-58
2023/04/15 06:17:58;;;;;;;13.00;9.40;;;;;;;7.13;65.50;99700.63;5054323;28;20071;-58
2023/04/15 06:20:26;;;;;;;11.52;9.05;;;;;;;7.34;65.46;99707.34;5053907;28;20053;-58
2023/04/15 06:22:53;;;;;;;12.05;9.52;;;;;;;7.51;64.70;99706.69;5050398;28;20060;-58
2023/04/15 06:25:21;;;;;;;14.30;10.02;;;;;;;7.73;64.30;99701.19;5054054;28;20048;-58
2023/04/15 06:27:50;;;;;;;11.23;8.30;;;;;;;7.83;64.96;99702.88;5053660;28;20057;-57
2023/04/15 06:30:17;;;;;;;10.77;8.40;;;;;;;7.98;64.47;99707.22;5053528;28;20056;-58
2023/04/15 06:32:45;;;;;;;10.48;8.00;;;;;;;8.22;62.99;99706.88;5053826;28;20414;-58
2023/04/15 06:35:12;;;;;;;11.85;8.18;;;;;;;8.30;62.46;99710.84;5053768;28;20493;-58
2023/04/15 06:37:39;;;;;;;10.63;8.80;;;;;;;8.42;61.81;99713.03;5048988;28;20045;-58
2023/04/15 06:40:08;;;;;;;11.45;8.75;;;;;;;8.54;61.66;99705.75;5053651;28;20045;-58
2023/04/15 06:42:37;;;;;;;9.57;8.40;;;;;;;8.65;61.00;99709.09;5053945;28;20508;-58
2023/04/15 06:45:07;;;;;;;11.90;8.85;;;;;;;8.77;59.67;99711.25;5053768;28;20057;-58
2023/04/15 06:47:34;;;;;;;11.98;9.25;;;;;;;8.83;59.61;99704.41;5053686;28;20079;-58
2023/04/15 06:50:02;;;;;;;14.55;11.32;;;;;;;8.89;60.73;99708.69;5053293;28;20049;-58
2023/04/15 06:52:30;;;;;;;14.52;12.02;;;;;;;9.01;60.46;99712.78;5049785;28;20053;-58
2023/04/15 06:54:58;;;;;;;12.55;10.70;;;;;;;9.14;59.24;99711.84;5053299;28;20060;-58
2023/04/15 06:57:25;;;;;;;13.57;10.23;;;;;;;9.28;59.27;99717.25;5053057;28;20080;-58
2023/04/15 06:59:53;;;;;;;13.05;10.38;;;;;;;9.41;59.51;99712.69;5037060;28;20050;-58
2023/04/15 07:02:22;;;;;;;10.80;9.65;;;;;;;9.55;59.39;99717.00;5034090;28;20061;-58
2023/04/15 07:04:49;;;;;;;11.00;8.82;;;;;;;9.72;58.03;99723.69;5036632;28;20508;-58
2023/04/15 07:07:17;;;;;;;10.50;8.35;;;;;;;9.80;57.23;99722.84;5038101;28;20422;-58
2023/04/15 07:09:44;;;;;;;12.23;9.45;;;;;;;9.86;57.11;99717.97;5032678;28;20053;-58
2023/04/15 07:12:11;;;;;;;10.90;9.20;;;;;;;9.77;58.01;99723.53;5034057;28;20058;-58
2023/04/15 07:14:39;;;;;;;13.43;9.77;;;;;;;9.85;57.36;99721.88;5038478;28;20053;-58
2023/04/15 07:17:06;;;;;;;11.07;9.25;;;;;;;10.01;57.80;99725.78;5053097;28;20049;-58
2023/04/15 07:19:35;;;;;;;13.23;9.75;;;;;;;10.12;58.14;99721.53;5048656;28;20078;-58
2023/04/15 07:22:02;;;;;;;12.50;9.15;;;;;;;10.41;57.80;99724.78;5040753;28;20056;-58
2023/04/15 07:24:30;;;;;;;10.23;8.85;;;;;;;10.53;57.21;99727.69;5032630;28;20049;-58
2023/04/15 07:26:58;;;;;;;11.43;9.80;;;;;;;10.70;57.20;99724.81;5032582;28;20059;-58
2023/04/15 07:29:25;;;;;;;11.98;9.30;;;;;;;10.79;57.11;99721.19;5031213;28;20049;-58
2023/04/15 07:31:53;;;;;;;10.75;9.38;;;;;;;11.06;57.19;99719.91;5045528;28;20052;-58
2023/04/15 07:34:20;;;;;;;13.43;9.40;;;;;;;11.20;56.53;99728.06;5046009;28;20053;-58
2023/04/15 07:36:50;;;;;;;14.05;11.00;;;;;;;11.41;56.05;99717.75;5047925;28;20057;-58
2023/04/15 07:39:18;;;;;;;12.45;10.07;;;;;;;11.71;55.57;99724.06;5052519;28;20044;-59
2023/04/15 07:41:45;;;;;;;14.43;10.80;;;;;;;11.91;54.42;99725.25;5049188;28;20060;-58
2023/04/15 07:44:12;;;;;;;12.88;10.07;;;;;;;12.21;54.18;99722.34;5052439;28;20059;-58
2023/04/15 07:46:40;;;;;;;10.95;9.52;;;;;;;12.46;53.73;99719.63;5052567;28;20048;-58
2023/04/15 07:49:07;;;;;;;13.18;10.52;;;;;;;12.65;52.92;99719.09;5052456;28;20064;-58
2023/04/15 07:51:34;;;;;;;12.07;10.00;;;;;;;13.06;53.01;99717.22;5047721;28;20055;-58
2023/04/15 07:54:03;;;;;;;14.07;10.52;;;;;;;13.22;52.28;99728.53;5032288;28;20054;-59
2023/04/15 07:56:31;;;;;;;11.70;10.43;;;;;;;13.55;51.66;99720.84;5032605;28;20058;-59
2023/04/15 07:59:00;;;;;;;12.52;9.63;;;;;;;13.65;50.99;99718.69;5032454;28;20475;-59
2023/04/15 08:01:28;;;;;;;11.25;9.90;;;;;;;13.95;51.40;99728.41;5032228;28;20060;-58
2023/04/15 08:03:55;;;;;;;12.57;9.75;;;;;;;14.32;49.76;99721.81;5032150;28;20060;-58
2023/04/15 08:06:32;;;;;;;13.02;9.45;;;;;;;14.90;49.84;99727.78;5034580;28;20450;-58
2023/04/15 08:08:59;;;;;;;10.90;9.80;;;;;;;15.34;47.90;99716.44;5046571;28;20053;-58
2023/04/15 08:11:28;;;;;;;11.32;9.63;;;;;;;15.96;47.83;99722.25;5051101;28;20053;-58
2023/04/15 08:13:55;;;;;;;11.85;9.95;;;;;;;16.68;45.66;99725.66;5052242;28;20414;-58
2023/04/15 08:16:24;;;;;;;13.25;10.23;;;;;;;17.14;44.62;99722.84;5051831;28;20053;-58
2023/04/15 08:18:53;;;;;;;10.52;9.30;;;;;;;17.37;44.22;99722.81;5048329;28;20049;-58
2023/04/15 08:21:21;;;;;;;10.98;9.43;;;;;;;17.42;43.60;99725.28;5048149;28;20049;-58
2023/04/15 08:23:51;;;;;;;10.70;9.00;;;;;;;17.41;43.79;99723.66;5032186;28;20060;-58
2023/04/15 08:26:18;;;;;;;;;;;;;;;17.01;44.28;99722.25;5035055;28;20054;-58
2023/04/15 08:28:47;;;;;;;12.88;10.18;;;;;;;16.96;44.68;99717.72;5037180;28;19925;-58
2023/04/15 08:31:16;;;;;;;9.10;8.20;;;;;;;16.61;45.10;99721.50;5040170;28;20041;-58
2023/04/15 08:33:43;;;;;;;9.00;8.10;;;;;;;16.56;45.07;99727.44;5056185;28;20060;-58
2023/04/15 08:36:11;;;;;;;8.85;7.88;;;;;;;16.50;45.27;99728.13;5052548;28;20052;-59
2023/04/15 08:38:38;;;;;;;11.60;8.95;;;;;;;16.33;46.08;99735.03;5043729;28;20071;-58
2023/04/15 08:41:11;;;;;;;9.27;8.38;;;;;;;16.29;45.76;99736.94;5053275;28;20045;-58
2023/04/15 08:43:47;;;;;;;9.50;8.50;;;;;;;16.21;45.67;99731.19;5045708;28;20060;-58
2023/04/15 08:46:16;;;;;;;10.35;7.90;;;;;;;16.24;45.92;99740.88;5040058;28;20156;-58
2023/04/15 08:48:44;;;;;;;9.32;7.90;;;;;;;16.26;45.68;99734.88;5038436;28;20054;-58
2023/04/15 08:51:14;;;;;;;9.10;7.63;;;;;;;16.14;45.50;99744.28;5038530;28;20046;-58
2023/04/15 08:53:43;;;;;;;8.93;8.02;;;;;;;15.84;46.24;99736.44;5036465;28;20049;-58
2023/04/15 08:56:12;;;;;;;9.07;7.65;;;;;;;15.69;47.17;99740.09;5053918;28;20049;-58
2023/04/15 08:58:39;;;;;;;9.15;8.25;;;;;;;15.35;47.07;99746.13;5055438;28;20363;-58
2023/04/15 09:01:07;;;;;;;9.93;8.32;;;;;;;15.30;47.86;99743.59;5055017;28;20152;-58
2023/04/15 09:03:37;;;;;;;8.85;7.30;;;;;;;15.04;47.41;99754.59;5055277;28;20049;-58
2023/04/15 09:06:05;;;;;;;9.13;7.78;;;;;;;14.86;49.18;99757.72;5055723;28;20080;-58
2023/04/15 09:08:33;;;;;;;7.82;6.40;;;;;;;14.84;49.01;99754.47;5042653;28;20049;-58
2023/04/15 09:11:01;;;;;;;9.25;7.13;;;;;;;14.80;48.58;99760.00;5047841;28;20513;-62
2023/04/15 09:13:31;;;;;;;10.82;7.38;;;;;;;14.92;48.58;99766.69;5055197;28;20050;-62
2023/04/15 09:15:58;;;;;;;7.93;6.82;;;;;;;15.19;47.98;99767.78;5036503;28;20068;-62
2023/04/15 09:18:30;;;;;;;7.68;6.80;;;;;;;15.28;48.18;99764.78;5051735;28;20049;-63
2023/04/15 09:21:05;;;;;;;10.15;7.00;;;;;;;15.30;47.98;99774.47;5045082;28;20054;-63
2023/04/15 09:23:33;;;;;;;8.07;6.50;;;;;;;15.36;48.15;99773.00;5041540;28;20056;-64
2023/04/15 09:26:01;;;;;;;7.75;6.93;;;;;;;15.45;47.18;99777.63;5053756;28;20053;-63
2023/04/15 09:28:29;;;;;;;7.65;6.80;;;;;;;15.35;47.98;99779.81;5038526;28;20065;-62
2023/04/15 09:30:57;;;;;;;7.95;6.95;;;;;;;14.90;49.16;99783.06;5034761;28;20489;-63
2023/04/15 09:33:25;;;;;;;8.35;7.10;;;;;;;14.94;48.39;99787.59;5035142;28;20045;-62
2023/04/15 09:36:02;;;;;;;7.65;6.68;;;;;;;15.02;48.63;99789.41;5045314;28;20052;-62
2023/04/15 09:38:29;;;;;;;7.68;6.55;;;;;;;15.20;48.41;99789.88;5037228;28;20510;-62
2023/04/15 09:40:57;;;;;;;7.75;6.95;;;;;;;15.05;49.41;99787.06;5035142;28;20057;-62
2023/04/15 09:43:38;;;;;;;7.43;6.72;;;;;;;14.81;49.88;99795.28;5035045;28;20395;-63
2023/04/15 09:46:07;;;;;;;8.15;6.82;;;;;;;14.57;50.33;99792.59;5035021;28;20053;-63
2023/04/15 09:48:35;;;;;;;8.45;7.55;;;;;;;14.53;50.67;99789.69;5034745;28;20084;-63
2023/04/15 09:51:04;;;;;;;7.80;7.00;;;;;;;14.49;50.18;99797.19;5039230;28;20052;-63
2023/04/15 09:53:34;;;;;;;9.48;8.25;;;;;;;14.33;51.33;99796.31;5035658;28;20485;-63
2023/04/15 09:56:02;;;;;;;8.70;7.90;;;;;;;14.34;51.16;99803.53;5034725;28;20500;-63
2023/04/15 09:58:33;;;;;;;9.13;8.18;;;;;;;14.29;51.45;99796.19;5034827;28;20057;-63
2023/04/15 10:01:03;;;;;;;8.55;7.72;;;;;;;14.28;52.17;99808.59;5053119;28;20049;-63
2023/04/15 10:03:32;;;;;;;9.32;7.57;;;;;;;14.29;51.84;99809.41;5054404;28;20072;-63
2023/04/15 10:06:02;;;;;;;8.60;7.70;;;;;;;14.16;52.21;99801.03;5052416;28;20056;-62
2023/04/15 10:08:34;;;;;;;9.10;8.15;;;;;;;14.15;51.58;99806.97;5037014;28;20418;-63
2023/04/15 10:11:02;;;;;;;8.63;7.72;;;;;;;14.08;52.23;99799.19;5052183;28;20049;-62
2023/04/15 10:13:34;;;;;;;9.40;7.63;;;;;;;14.04;51.92;99800.25;5054131;28;20123;-62
2023/04/15 10:16:06;;;;;;;10.20;8.60;;;;;;;14.00;52.69;99809.34;5054284;28;20052;-63
2023/04/15 10:18:35;;;;;;;9.00;7.70;;;;;;;14.16;53.12;99809.44;5054272;28;20060;-63
2023/04/15 10:21:03;;;;;;;9.43;7.97;;;;;;;14.14;51.93;99817.38;5044606;28;20049;-63
2023/04/15 10:23:33;;;;;;;9.48;8.18;;;;;;;14.08;52.78;99818.78;5042325;28;20045;-62
2023/04/15 10:26:01;;;;;;;8.70;7.80;;;;;;;14.07;53.14;99814.38;5035546;28;20053;-63
2023/04/15 10:28:28;;;;;;;8.43;7.63;;;;;;;14.01;52.15;99813.00;5035069;28;20497;-62
2023/04/15 10:30:56;;;;;;;8.35;7.47;;;;;;;13.88;52.80;99822.56;5044741;28;20060;-62
2023/04/15 10:33:25;;;;;;;8.48;7.68;;;;;;;13.82;53.50;99822.00;5038600;28;20053;-62
2023/04/15 10:35:55;;;;;;;8.37;7.03;;;;;;;13.80;53.45;99825.16;5038705;28;20053;-62
2023/04/15 10:38:34;;;;;;;8.30;6.88;;;;;;;13.81;54.04;99818.38;5042449;28;20490;-62
2023/04/15 10:41:18;;;;;;;8.02;7.22;;;;;;;13.79;53.63;99834.69;5038643;28;20049;-62
2023/04/15 10:43:53;;;;;;;8.63;6.78;;;;;;;13.89;53.37;99832.59;5034025;28;20072;-62
2023/04/15 10:46:24;;;;;;;7.25;5.93;;;;;;;13.87;53.66;99830.16;5050233;28;20056;-62
2023/04/15 10:48:53;;;;;;;7.55;5.95;;;;;;;13.82;53.91;99838.81;5048421;28;20060;-62
2023/04/15 10:51:31;;;;;;;6.90;5.97;;;;;;;13.73;54.66;99844.53;5045758;28;20041;-62
2023/04/15 10:54:01;;;;;;;6.22;5.35;;;;;;;13.73;54.38;99836.13;5052307;28;20067;-62
2023/04/15 10:56:30;;;;;;;7.97;6.63;;;;;;;13.79;54.32;99840.28;5051663;28;20060;-62
2023/04/15 10:58:59;;;;;;;7.15;6.45;;;;;;;13.75;53.86;99841.34;5051141;28;20056;-63
2023/04/15 11:01:52;;;;;;;6.72;5.90;;;;;;;13.73;53.82;99844.53;5051432;28;20048;-63
2023/04/15 11:04:56;;;;;;;7.50;6.15;;;;;;;13.64;54.36;99843.81;5043865;28;20057;-63
2023/04/15 11:07:55;;;;;;;7.45;6.65;;;;;;;13.52;55.60;99846.63;5043363;28;20054;-63
2023/04/15 11:10:37;;;;;;;;;;;;;;;13.32;55.06;99848.38;5031659;28;20060;-63
2023/04/15 11:13:15;;;;;;;9.75;7.57;;;;;;;13.31;55.27;99858.75;5031426;28;19921;-63
2023/04/15 11:15:44;;;;;;;8.45;6.85;;;;;;;13.22;55.93;99855.19;5031767;28;20049;-63
2023/04/15 11:18:13;;;;;;;7.90;7.07;;;;;;;13.20;56.75;99860.31;5043037;28;20045;-59
2023/04/15 11:20:43;;;;;;;7.03;6.33;;;;;;;13.28;57.71;99855.78;5037052;28;20045;-59
2023/04/15 11:23:11;;;;;;;7.80;6.47;;;;;;;13.12;58.35;99861.22;5031801;28;20060;-59
2023/04/15 11:25:38;;;;;;;11.00;9.43;;;;;;;13.15;57.76;99863.34;5036514;28;20505;-59
2023/04/15 11:28:07;;;;;;;13.82;12.32;;;;;;;13.04;58.86;99865.78;5037933;28;20076;-59
2023/04/15 11:30:36;;;;;;;16.15;14.18;;;;;;;12.90;59.27;99865.28;5032534;28;20056;-59
2023/04/15 11:33:04;;;;;;;13.30;11.93;;;;;;;12.78;59.00;99864.06;5032856;28;20041;-57
2023/04/15 11:35:32;;;;;;;11.90;10.70;;;;;;;12.84;59.88;99889.00;5039463;28;20048;-57
2023/04/15 11:38:04;;;;;;;10.85;9.13;;;;;;;12.85;60.10;99880.28;5039849;28;20056;-57
2023/04/15 11:40:34;;;;;;;8.07;6.95;;;;;;;12.97;59.85;99883.09;5036137;28;20061;-58
2023/04/15 11:43:07;;;;;;;9.05;6.85;;;;;;;12.98;59.91;99881.94;5045051;28;20049;-58
2023/04/15 11:45:34;;;;;;;8.52;6.93;;;;;;;13.00;60.12;99884.41;5035194;28;20057;-57
2023/04/15 11:48:09;;;;;;;8.02;6.60;;;;;;;13.00;60.05;99888.00;5032573;28;20057;-59